Time;durP1;ratioP1;P1;durP2;ratioP2;P2;SDS_P1;SDS_P2;PMS_P1;PMS_P2;Temp;Humidity;BMP_temperature;BMP_pressure;BME280_temperature;BME280_humidity;BME280_pressure;Samples;Min_cycle;Max_cycle;Signal;HPM_P1;HPM_P2
2021/06/02 00:01:30;;;;;;;2.10;1.20;;;;;;;15.91;51.80;101429.84;6226083;28;20072;-79
2021/06/02 00:04:34;;;;;;;3.92;1.40;;;;;;;15.88;53.77;101424.75;6226501;28;20123;-78
2021/06/02 00:07:36;;;;;;;4.85;1.13;;;;;;;15.79;53.87;101428.84;6226690;28;20058;-79
2021/06/02 00:10:37;;;;;;;1.88;1.30;;;;;;;15.73;53.23;101424.78;6227654;28;20056;-79
2021/06/02 00:13:38;;;;;;;3.70;1.40;;;;;;;15.61;50.40;101425.53;6232533;28;20072;-79
2021/06/02 00:16:41;;;;;;;4.40;1.67;;;;;;;15.53;50.17;101424.31;6236706;28;20141;-78
2021/06/02 00:19:42;;;;;;;2.22;1.20;;;;;;;15.47;49.93;101423.75;6233271;28;20120;-79
2021/06/02 00:22:45;;;;;;;3.22;1.50;;;;;;;15.41;49.41;101423.28;6237984;28;20532;-79
2021/06/02 00:25:46;;;;;;;4.55;1.27;;;;;;;15.42;49.11;101420.53;6235584;28;20049;-79
2021/06/02 00:28:48;;;;;;;2.50;1.30;;;;;;;15.34;49.02;101420.16;6229220;28;20516;-80
2021/06/02 00:31:52;;;;;;;2.55;1.38;;;;;;;15.31;49.40;101428.31;6228124;28;20049;-78
2021/06/02 00:34:53;;;;;;;1.92;1.20;;;;;;;15.21;49.55;101430.69;6228480;28;20052;-78
2021/06/02 00:37:54;;;;;;;2.17;1.20;;;;;;;15.23;48.71;101414.69;6228082;28;20050;-78
2021/06/02 00:40:55;;;;;;;1.30;1.10;;;;;;;15.13;50.88;101419.72;6225589;28;20077;-78
2021/06/02 00:43:57;;;;;;;2.67;1.40;;;;;;;15.16;49.64;101414.22;6224996;28;20050;-78
2021/06/02 00:47:00;;;;;;;3.03;1.50;;;;;;;15.12;50.56;101417.16;6225178;28;20050;-78
2021/06/02 00:50:01;;;;;;;3.50;1.40;;;;;;;15.13;51.43;101416.22;6225491;28;20061;-78
2021/06/02 00:53:02;;;;;;;1.95;1.33;;;;;;;15.14;52.07;101404.69;6225527;28;20053;-78
2021/06/02 00:56:05;;;;;;;2.67;1.55;;;;;;;15.10;51.97;101406.66;6225636;28;20237;-78
2021/06/02 00:59:09;;;;;;;3.05;1.33;;;;;;;15.05;53.21;101400.81;6225325;28;20046;-79
2021/06/02 01:02:14;;;;;;;1.92;1.08;;;;;;;15.01;55.20;101406.38;6225712;28;20085;-78
2021/06/02 01:05:17;;;;;;;11.77;1.58;;;;;;;14.89;53.31;101400.88;6224845;28;20489;-78
2021/06/02 01:08:21;;;;;;;4.00;1.60;;;;;;;14.81;52.51;101407.59;6225348;28;20178;-78
2021/06/02 01:11:24;;;;;;;6.07;1.40;;;;;;;14.73;56.04;101409.84;6225830;28;20065;-78
2021/06/02 01:14:27;;;;;;;3.40;1.48;;;;;;;14.73;57.13;101415.16;6225045;28;20053;-79
2021/06/02 01:17:31;;;;;;;7.65;1.60;;;;;;;14.67;56.14;101413.69;6225570;28;20058;-78
2021/06/02 01:20:33;;;;;;;4.28;1.60;;;;;;;14.68;56.24;101412.78;6224703;28;20727;-78
2021/06/02 01:23:36;;;;;;;4.63;1.63;;;;;;;14.57;55.67;101413.41;6225183;28;20046;-79
2021/06/02 01:26:37;;;;;;;7.63;1.63;;;;;;;14.54;54.93;101404.81;6225519;28;20050;-78
2021/06/02 01:29:41;;;;;;;3.58;1.73;;;;;;;14.48;55.96;101403.34;6225555;28;20666;-78
2021/06/02 01:32:54;;;;;;;3.88;1.67;;;;;;;14.36;54.15;101407.56;6224800;28;20061;-77
2021/06/02 01:36:04;;;;;;;3.42;1.67;;;;;;;14.29;54.35;101408.84;6224775;28;20143;-79
2021/06/02 01:39:59;;;;;;;3.22;1.60;;;;;;;14.19;54.94;101410.34;6224739;28;20056;-76
2021/06/02 01:43:23;;;;;;;7.60;2.22;;;;;;;14.19;55.07;101402.41;6222794;28;20093;-77
2021/06/02 01:46:45;;;;;;;3.67;1.70;;;;;;;14.21;57.99;101401.34;6223264;28;20061;-77
2021/06/02 01:50:16;;;;;;;3.33;1.80;;;;;;;14.27;58.91;101400.16;6223051;28;20148;-77
2021/06/02 01:53:47;;;;;;;3.35;1.70;;;;;;;14.18;58.35;101401.56;6222720;28;20046;-76
2021/06/02 01:57:24;;;;;;;3.90;1.92;;;;;;;14.06;56.41;101396.97;6223166;28;20108;-76
2021/06/02 02:00:41;;;;;;;2.80;1.63;;;;;;;13.91;56.50;101401.34;6222236;28;20184;-78
2021/06/02 02:04:05;;;;;;;5.20;1.83;;;;;;;13.82;57.28;101398.38;6223404;28;20312;-76
2021/06/02 02:07:31;;;;;;;6.40;1.95;;;;;;;13.84;61.34;101392.03;6223297;28;20081;-77
2021/06/02 02:10:43;;;;;;;5.63;2.05;;;;;;;13.82;58.33;101393.09;6223284;28;20056;-78
2021/06/02 02:14:09;;;;;;;3.50;2.15;;;;;;;13.82;61.77;101396.59;6223223;28;20374;-76
2021/06/02 02:17:37;;;;;;;2.20;1.77;;;;;;;13.74;58.44;101395.31;6223930;28;20054;-78
2021/06/02 02:20:44;;;;;;;2.90;1.87;;;;;;;13.58;58.31;101396.19;6221872;28;20058;-78
2021/06/02 02:23:53;;;;;;;4.43;1.52;;;;;;;13.52;59.13;101398.28;6223392;28;20045;-78
2021/06/02 02:27:00;;;;;;;3.37;2.10;;;;;;;13.36;59.78;101399.13;6223637;28;20184;-78
2021/06/02 02:30:06;;;;;;;5.82;2.03;;;;;;;13.29;59.77;101397.75;6223485;28;20294;-76
2021/06/02 02:33:24;;;;;;;2.58;2.03;;;;;;;13.21;60.43;101394.63;6222573;28;20053;-76
2021/06/02 02:36:31;;;;;;;2.72;1.88;;;;;;;13.10;60.95;101389.09;6222236;28;20093;-76
2021/06/02 02:39:40;;;;;;;5.30;2.10;;;;;;;13.16;64.96;101391.41;6222050;28;20057;-76
2021/06/02 02:42:46;;;;;;;5.43;2.00;;;;;;;13.26;62.98;101394.41;6221820;28;20141;-76
2021/06/02 02:46:02;;;;;;;5.97;2.10;;;;;;;13.21;64.29;101397.28;6221914;28;20049;-76
2021/06/02 02:49:12;;;;;;;5.75;2.30;;;;;;;13.23;64.12;101392.81;6223531;28;20084;-76
2021/06/02 02:52:21;;;;;;;4.15;2.38;;;;;;;13.16;65.47;101391.41;6223778;28;20107;-78
2021/06/02 02:55:27;;;;;;;3.40;2.25;;;;;;;13.16;65.71;101396.69;6224587;28;20129;-75
2021/06/02 02:58:36;;;;;;;3.97;2.40;;;;;;;13.17;65.94;101393.09;6224224;28;20057;-76
2021/06/02 03:01:42;;;;;;;6.65;3.08;;;;;;;13.12;66.72;101385.41;6222659;28;20513;-77
2021/06/02 03:04:50;;;;;;;3.80;2.35;;;;;;;13.07;66.97;101392.72;6221371;28;20100;-76
2021/06/02 03:07:59;;;;;;;4.67;2.33;;;;;;;12.97;67.25;101390.69;6225315;28;20049;-78
2021/06/02 03:11:08;;;;;;;5.73;2.77;;;;;;;12.93;68.42;101389.97;6228844;28;20350;-76
2021/06/02 03:14:16;;;;;;;3.70;2.35;;;;;;;12.84;68.81;101383.41;6227285;28;20050;-76
2021/06/02 03:17:24;;;;;;;4.75;2.60;;;;;;;12.81;69.97;101387.97;6227487;28;20065;-76
2021/06/02 03:20:32;;;;;;;11.35;4.40;;;;;;;12.81;70.69;101402.06;6227553;28;20053;-77
2021/06/02 03:23:49;;;;;;;4.32;2.63;;;;;;;12.80;70.76;101388.91;6226267;28;20398;-78
2021/06/02 03:26:57;;;;;;;4.93;2.70;;;;;;;12.87;70.67;101388.53;6226580;28;20520;-77
2021/06/02 03:30:08;;;;;;;4.00;2.38;;;;;;;12.86;69.85;101385.97;6226450;28;20053;-78
2021/06/02 03:33:22;;;;;;;3.80;2.75;;;;;;;12.79;68.44;101392.50;6226043;28;20052;-78
2021/06/02 03:36:34;;;;;;;5.55;2.60;;;;;;;12.70;68.59;101389.41;6225674;28;20046;-77
2021/06/02 03:39:49;;;;;;;6.85;2.60;;;;;;;12.66;68.85;101398.41;6226119;28;20456;-79
2021/06/02 03:42:57;;;;;;;6.10;2.78;;;;;;;12.74;70.59;101397.16;6225867;28;20054;-78
2021/06/02 03:46:09;;;;;;;5.75;2.63;;;;;;;12.76;70.53;101390.84;6225631;28;20046;-78
2021/06/02 03:49:14;;;;;;;8.15;2.72;;;;;;;12.77;70.07;101397.88;6225890;28;20053;-78
2021/06/02 03:52:31;;;;;;;11.35;2.95;;;;;;;12.87;70.43;101398.22;6223699;28;20046;-78
2021/06/02 03:55:35;;;;;;;5.32;2.60;;;;;;;12.85;69.20;101405.34;6212357;28;20046;-77
2021/06/02 03:58:46;;;;;;;7.78;3.47;;;;;;;12.68;69.68;101408.88;6217251;28;20046;-77
2021/06/02 04:01:52;;;;;;;7.95;2.63;;;;;;;12.70;70.59;101407.88;6225111;28;20049;-77
2021/06/02 04:05:05;;;;;;;4.40;2.40;;;;;;;12.69;69.96;101400.88;6224887;28;20555;-77
2021/06/02 04:08:15;;;;;;;5.60;2.42;;;;;;;12.62;70.85;101402.13;6225092;28;20061;-77
2021/06/02 04:11:18;;;;;;;;;;;;;;;12.59;72.07;101410.22;6225724;28;20057;-77
2021/06/02 04:14:30;;;;;;;3.35;2.25;;;;;;;12.65;72.18;101409.88;6224493;28;19921;-75
2021/06/02 04:17:33;;;;;;;5.47;2.50;;;;;;;12.74;72.80;101405.94;6227401;28;20238;-78
2021/06/02 04:20:35;;;;;;;4.75;2.65;;;;;;;12.90;72.16;101403.34;6222976;28;20065;-78
2021/06/02 04:23:38;;;;;;;4.72;2.65;;;;;;;12.90;72.02;101404.22;6222048;28;20456;-78
2021/06/02 04:26:39;;;;;;;14.75;3.22;;;;;;;12.81;70.54;101412.59;6226253;28;20053;-76
2021/06/02 04:29:43;;;;;;;4.85;3.00;;;;;;;12.80;71.44;101416.16;6225798;28;20519;-76
2021/06/02 04:32:46;;;;;;;3.67;2.42;;;;;;;12.74;71.85;101413.00;6225305;28;20056;-76
2021/06/02 04:35:51;;;;;;;3.78;2.50;;;;;;;12.68;71.15;101409.75;6225353;28;20046;-76
2021/06/02 04:38:56;;;;;;;5.18;2.45;;;;;;;12.69;72.18;101415.88;6224288;28;20555;-76
2021/06/02 04:41:59;;;;;;;3.47;2.53;;;;;;;12.65;71.89;101412.53;6224190;28;20111;-77
2021/06/02 04:45:00;;;;;;;4.47;2.38;;;;;;;12.65;71.96;101409.88;6224120;28;20628;-76
2021/06/02 04:48:02;;;;;;;6.20;2.20;;;;;;;12.69;73.72;101414.06;6224137;28;20088;-77
2021/06/02 04:51:24;;;;;;;2.90;2.30;;;;;;;12.80;73.23;101416.16;6224088;28;20046;-77
2021/06/02 04:55:02;;;;;;;2.85;2.03;;;;;;;12.97;71.79;101406.50;6223519;28;20489;-76
2021/06/02 04:58:27;;;;;;;3.23;2.03;;;;;;;12.98;71.85;101406.41;6222212;28;20460;-76
2021/06/02 05:01:49;;;;;;;3.88;2.15;;;;;;;13.06;72.00;101412.16;6223820;28;20054;-76
2021/06/02 05:05:23;;;;;;;4.95;2.03;;;;;;;13.12;71.41;101414.44;6223186;28;20049;-76
2021/06/02 05:09:04;;;;;;;4.68;2.10;;;;;;;13.10;71.48;101416.34;6224060;28;20054;-76
2021/06/02 05:12:44;;;;;;;3.10;2.05;;;;;;;13.16;71.98;101416.00;6223573;28;20050;-76
2021/06/02 05:16:19;;;;;;;7.60;1.98;;;;;;;13.27;70.70;101426.03;6223373;28;20060;-77
2021/06/02 05:20:05;;;;;;;5.13;1.75;;;;;;;13.31;70.15;101422.28;6223830;28;20512;-76
2021/06/02 05:23:47;;;;;;;3.80;1.40;;;;;;;13.36;69.75;101430.81;6245109;22;20042;-76
2021/06/02 05:27:25;;;;;;;3.45;2.03;;;;;;;13.35;70.46;101436.16;6223029;28;20053;-75
2021/06/02 05:31:16;;;;;;;3.60;1.80;;;;;;;13.30;69.95;101436.41;6221720;28;20096;-75
2021/06/02 05:34:53;;;;;;;3.60;1.60;;;;;;;13.37;69.31;101442.22;6171120;28;20046;-75
2021/06/02 05:38:31;;;;;;;2.75;1.77;;;;;;;13.41;70.01;101444.63;6198775;28;20180;-75
2021/06/02 05:41:54;;;;;;;5.75;1.63;;;;;;;13.49;70.11;101443.34;6198628;28;20050;-75
2021/06/02 05:45:29;;;;;;;3.97;1.80;;;;;;;13.53;70.49;101442.22;6198184;28;20046;-75
2021/06/02 05:49:22;;;;;;;8.52;2.00;;;;;;;13.57;69.91;101454.34;6198295;28;20058;-75
2021/06/02 05:52:57;;;;;;;19.27;2.50;;;;;;;13.57;70.13;101454.34;6197781;28;20140;-75
2021/06/02 05:56:16;;;;;;;7.93;1.73;;;;;;;13.64;70.23;101447.78;6197995;28;20073;-76
2021/06/02 05:59:59;;;;;;;7.13;3.67;;;;;;;13.64;70.46;101451.28;6198034;28;20054;-75
2021/06/02 06:03:45;;;;;;;15.93;2.13;;;;;;;13.68;71.38;101454.63;6197883;28;20097;-75
2021/06/02 06:06:54;;;;;;;6.50;1.70;;;;;;;13.80;69.93;101448.63;6198097;28;20053;-75
2021/06/02 06:10:32;;;;;;;2.03;1.63;;;;;;;13.85;71.13;101451.03;6197877;28;20567;-75
2021/06/02 06:14:05;;;;;;;6.72;1.70;;;;;;;13.93;70.93;101446.16;6219601;28;20077;-75
2021/06/02 06:17:21;;;;;;;5.78;1.88;;;;;;;14.06;71.04;101451.63;6221524;28;20065;-75
2021/06/02 06:20:48;;;;;;;10.23;2.35;;;;;;;14.25;69.97;101446.97;6221626;28;20054;-75
2021/06/02 06:23:54;;;;;;;5.15;1.80;;;;;;;14.27;70.23;101447.75;6190804;28;20037;-75
2021/06/02 06:27:02;;;;;;;30.33;2.55;;;;;;;14.49;70.32;101451.81;6221961;28;20497;-75
2021/06/02 06:30:09;;;;;;;593.75;53.13;;;;;;;14.52;70.54;101454.28;6221361;28;20053;-75
2021/06/02 06:33:14;;;;;;;44.63;5.40;;;;;;;14.64;70.44;101449.13;6221659;28;20512;-75
2021/06/02 06:36:18;;;;;;;17.08;2.75;;;;;;;14.86;69.91;101448.72;6221867;28;20056;-75
2021/06/02 06:39:28;;;;;;;20.45;2.60;;;;;;;14.95;69.65;101442.88;6221736;28;20522;-75
2021/06/02 06:42:35;;;;;;;10.32;2.55;;;;;;;14.98;69.38;101442.66;6224564;28;20072;-75
2021/06/02 06:45:40;;;;;;;4.20;2.00;;;;;;;15.01;68.17;101446.09;6226267;28;20056;-75
2021/06/02 06:48:45;;;;;;;7.88;2.20;;;;;;;14.97;68.87;101443.63;6226669;28;20049;-75
2021/06/02 06:51:52;;;;;;;5.25;2.10;;;;;;;14.99;68.94;101438.25;6226459;28;20120;-75
2021/06/02 06:54:56;;;;;;;3.08;1.95;;;;;;;15.01;68.83;101439.00;6226029;28;20085;-75
2021/06/02 06:57:58;;;;;;;14.30;2.50;;;;;;;15.03;69.08;101447.66;6226320;28;20054;-75
2021/06/02 07:01:01;;;;;;;12.88;2.60;;;;;;;15.11;68.88;101444.56;6226232;28;20421;-76
2021/06/02 07:04:02;;;;;;;12.27;2.65;;;;;;;15.12;69.19;101454.22;6225901;28;20049;-75
2021/06/02 07:07:04;;;;;;;10.75;2.22;;;;;;;15.23;67.93;101447.31;6226242;28;20552;-75
2021/06/02 07:10:07;;;;;;;3.75;2.17;;;;;;;15.26;68.52;101450.72;6226008;28;20104;-76
2021/06/02 07:13:10;;;;;;;11.48;2.92;;;;;;;15.21;69.43;101451.00;6226372;28;20050;-75
2021/06/02 07:16:14;;;;;;;8.07;2.28;;;;;;;15.35;68.98;101442.19;6225717;28;20053;-75
2021/06/02 07:19:17;;;;;;;6.00;2.45;;;;;;;15.33;68.51;101444.09;6225787;28;20050;-76
2021/06/02 07:22:22;;;;;;;8.95;2.03;;;;;;;15.49;69.18;101439.56;6224355;28;20100;-76
2021/06/02 07:25:26;;;;;;;33.67;3.95;;;;;;;15.56;68.52;101434.72;6225428;28;20081;-75
2021/06/02 07:28:35;;;;;;;22.15;3.25;;;;;;;15.62;68.68;101440.47;6225818;28;20073;-76
2021/06/02 07:31:37;;;;;;;12.35;2.65;;;;;;;15.73;68.36;101437.19;6225645;28;20129;-75
2021/06/02 07:34:38;;;;;;;11.30;2.13;;;;;;;15.74;68.20;101433.56;6225543;28;20077;-76
2021/06/02 07:37:39;;;;;;;12.32;2.25;;;;;;;15.82;70.30;101439.25;6225334;28;20136;-75
2021/06/02 07:40:40;;;;;;;13.32;2.92;;;;;;;15.88;69.02;101436.19;6227769;28;20049;-75
2021/06/02 07:43:41;;;;;;;25.33;4.38;;;;;;;15.96;67.02;101431.25;6232013;28;20517;-75
2021/06/02 07:46:43;;;;;;;5.65;2.72;;;;;;;16.05;67.42;101444.88;6232637;28;20041;-77
2021/06/02 07:49:44;;;;;;;23.73;3.38;;;;;;;15.97;66.60;101440.03;6225255;28;20054;-76
2021/06/02 07:52:45;;;;;;;21.58;2.70;;;;;;;15.98;67.46;101436.44;6242496;28;20107;-76
2021/06/02 07:55:46;;;;;;;6.13;2.72;;;;;;;16.03;68.68;101441.44;6249499;28;20480;-76
2021/06/02 07:58:47;;;;;;;6.07;2.60;;;;;;;16.15;67.72;101440.66;6249255;28;20053;-76
2021/06/02 08:01:49;;;;;;;18.38;2.72;;;;;;;16.19;68.13;101455.41;6226986;28;20471;-77
2021/06/02 08:04:50;;;;;;;8.70;2.30;;;;;;;16.19;67.66;101450.09;6224496;28;20586;-77
2021/06/02 08:07:51;;;;;;;6.30;2.28;;;;;;;16.25;68.87;101455.00;6225072;28;20046;-76
2021/06/02 08:10:52;;;;;;;6.07;2.40;;;;;;;16.31;67.75;101462.56;6224731;28;20490;-77
2021/06/02 08:13:53;;;;;;;6.90;2.15;;;;;;;16.42;66.40;101454.75;6224608;28;20104;-77
2021/06/02 08:16:55;;;;;;;8.05;2.05;;;;;;;16.46;67.71;101458.91;6230687;28;20535;-76
2021/06/02 08:19:56;;;;;;;7.57;2.88;;;;;;;16.48;66.16;101461.44;6248817;28;20459;-77
2021/06/02 08:22:57;;;;;;;7.18;2.83;;;;;;;16.54;66.80;101455.75;6248731;28;20176;-77
2021/06/02 08:25:57;;;;;;;10.15;2.17;;;;;;;16.54;67.54;101457.53;6248427;28;20053;-76
2021/06/02 08:28:58;;;;;;;53.95;11.77;;;;;;;16.60;66.09;101455.31;6248810;28;20053;-77
2021/06/02 08:32:01;;;;;;;27.13;6.10;;;;;;;16.73;65.57;101460.69;6248575;28;20054;-77
2021/06/02 08:35:02;;;;;;;8.48;2.70;;;;;;;16.89;65.40;101455.16;6248455;28;20045;-77
2021/06/02 08:38:03;;;;;;;21.25;3.78;;;;;;;16.87;66.18;101459.75;6248461;28;20050;-76
2021/06/02 08:41:06;;;;;;;24.73;4.30;;;;;;;16.87;67.13;101455.28;6248811;28;20088;-77
2021/06/02 08:44:07;;;;;;;14.85;2.90;;;;;;;16.92;67.56;101457.63;6247907;28;20455;-77
2021/06/02 08:47:10;;;;;;;20.60;3.20;;;;;;;17.14;65.86;101459.66;6248472;28;20050;-76
2021/06/02 08:50:13;;;;;;;6.40;2.53;;;;;;;17.09;66.10;101454.66;6248088;28;20049;-77
2021/06/02 08:53:17;;;;;;;9.73;2.92;;;;;;;17.13;66.73;101450.84;6223973;28;20050;-75
2021/06/02 08:56:19;;;;;;;6.00;2.63;;;;;;;17.24;65.63;101448.25;6223198;28;20417;-77
2021/06/02 08:59:20;;;;;;;5.05;2.47;;;;;;;17.47;66.25;101448.44;6223782;28;20053;-78
2021/06/02 09:02:22;;;;;;;9.50;2.60;;;;;;;17.46;65.71;101439.63;6222232;28;20053;-78
2021/06/02 09:05:25;;;;;;;8.15;2.45;;;;;;;17.60;65.37;101440.44;6220049;28;20046;-76
2021/06/02 09:08:27;;;;;;;11.05;3.00;;;;;;;17.66;63.99;101446.16;6223130;28;20054;-77
2021/06/02 09:11:29;;;;;;;10.57;2.78;;;;;;;17.74;64.81;101449.16;6222576;28;20054;-76
2021/06/02 09:14:31;;;;;;;9.50;3.22;;;;;;;17.79;65.63;101446.16;6220971;28;20049;-77
2021/06/02 09:17:47;;;;;;;9.13;2.97;;;;;;;17.95;63.94;101436.13;6222579;28;20081;-77
2021/06/02 09:20:49;;;;;;;7.72;2.35;;;;;;;17.88;63.43;101432.19;6223112;28;20050;-78
2021/06/02 09:23:51;;;;;;;9.35;2.92;;;;;;;17.93;65.33;101434.53;6222925;28;20062;-77
2021/06/02 09:26:52;;;;;;;6.90;2.65;;;;;;;17.90;63.66;101432.94;6222998;28;20489;-77
2021/06/02 09:29:54;;;;;;;3.83;2.20;;;;;;;18.04;62.34;101431.94;6223157;28;20046;-77
2021/06/02 09:32:58;;;;;;;14.25;3.33;;;;;;;17.95;63.94;101432.63;6222753;28;20058;-77
2021/06/02 09:36:06;;;;;;;10.38;2.83;;;;;;;18.10;65.26;101436.78;6221922;28;20054;-76
2021/06/02 09:39:09;;;;;;;8.93;3.25;;;;;;;18.26;63.26;101431.19;6216377;28;20053;-74
2021/06/02 09:42:17;;;;;;;10.32;2.80;;;;;;;18.33;64.49;101429.75;6220845;28;20050;-75
2021/06/02 09:45:18;;;;;;;6.10;2.80;;;;;;;18.41;62.53;101430.03;6221105;28;20041;-73
2021/06/02 09:48:23;;;;;;;8.95;2.90;;;;;;;18.54;62.22;101440.59;6222557;28;20106;-76
2021/06/02 09:51:36;;;;;;;13.63;3.00;;;;;;;18.60;62.84;101442.78;6226226;28;20050;-75
2021/06/02 09:54:37;;;;;;;7.22;2.63;;;;;;;18.67;62.37;101443.19;6221332;28;20041;-75
2021/06/02 09:57:38;;;;;;;29.42;4.35;;;;;;;18.85;61.92;101435.59;6221968;28;20049;-75
2021/06/02 10:00:40;;;;;;;18.73;3.80;;;;;;;19.07;62.57;101432.13;6222361;28;20096;-75
2021/06/02 10:03:45;;;;;;;8.73;3.30;;;;;;;19.01;61.70;101436.13;6222147;28;20103;-76
2021/06/02 10:06:47;;;;;;;15.63;3.40;;;;;;;19.08;62.03;101433.84;6221675;28;20050;-74
2021/06/02 10:09:48;;;;;;;6.03;2.40;;;;;;;19.19;62.04;101429.38;6222283;28;20050;-74
2021/06/02 10:13:02;;;;;;;11.73;3.35;;;;;;;19.25;61.56;101433.34;6221903;28;20679;-75
2021/06/02 10:16:03;;;;;;;6.75;3.00;;;;;;;19.48;59.44;101429.72;6221949;28;20046;-75
2021/06/02 10:19:05;;;;;;;9.93;3.30;;;;;;;19.58;58.82;101437.00;6221878;28;20056;-75
2021/06/02 10:22:19;;;;;;;11.52;3.60;;;;;;;19.64;60.20;101428.53;6222335;28;20100;-75
2021/06/02 10:25:23;;;;;;;7.45;2.97;;;;;;;19.57;61.72;101435.28;6221967;28;20073;-75
2021/06/02 10:28:25;;;;;;;8.60;2.95;;;;;;;19.61;60.46;101432.28;6222071;28;20046;-75
2021/06/02 10:31:26;;;;;;;5.20;2.70;;;;;;;19.68;61.69;101433.47;6221997;28;20116;-75
2021/06/02 10:34:28;;;;;;;10.52;3.00;;;;;;;19.82;60.87;101429.69;6221906;28;20477;-75
2021/06/02 10:37:29;;;;;;;9.63;3.33;;;;;;;20.05;61.35;101427.81;6221967;28;20050;-76
2021/06/02 10:40:32;;;;;;;9.38;2.85;;;;;;;19.99;60.13;101431.00;6222052;28;20053;-75
2021/06/02 10:43:36;;;;;;;15.18;3.08;;;;;;;20.14;61.00;101427.03;6222017;28;20456;-76
2021/06/02 10:46:42;;;;;;;8.05;3.13;;;;;;;20.18;60.22;101424.97;6221685;28;20508;-75
2021/06/02 10:49:44;;;;;;;10.27;3.15;;;;;;;20.26;60.29;101427.88;6222065;28;20061;-76
2021/06/02 10:52:45;;;;;;;4.05;2.90;;;;;;;20.38;60.53;101425.97;6221472;28;20058;-75
2021/06/02 10:55:47;;;;;;;5.28;3.30;;;;;;;20.64;60.01;101426.47;6221470;28;20052;-76
2021/06/02 10:58:51;;;;;;;6.93;3.13;;;;;;;20.74;59.85;101422.88;6221619;28;20042;-75
2021/06/02 11:02:02;;;;;;;8.40;3.40;;;;;;;20.92;58.68;101424.97;6220684;28;20076;-76
2021/06/02 11:05:18;;;;;;;9.30;3.15;;;;;;;21.12;57.89;101432.13;6219624;28;20051;-76
2021/06/02 11:08:19;;;;;;;8.25;2.83;;;;;;;21.34;58.93;101430.25;6221637;28;20053;-76
2021/06/02 11:11:21;;;;;;;7.47;3.45;;;;;;;21.38;57.88;101418.31;6221433;28;20100;-79
2021/06/02 11:14:28;;;;;;;12.65;3.20;;;;;;;21.57;58.61;101422.84;6221438;28;20046;-75
2021/06/02 11:17:29;;;;;;;9.38;3.25;;;;;;;21.83;56.95;101417.84;6221058;28;20050;-76
2021/06/02 11:20:40;;;;;;;11.52;3.65;;;;;;;22.15;56.60;101420.31;6221609;28;20053;-76
2021/06/02 11:23:42;;;;;;;10.93;3.33;;;;;;;22.23;54.94;101421.31;6236226;22;20049;-77
2021/06/02 11:26:43;;;;;;;7.72;3.15;;;;;;;22.50;56.25;101420.59;6220662;28;20107;-77
2021/06/02 11:30:16;;;;;;;11.77;3.25;;;;;;;22.98;54.44;101417.00;6225555;28;20073;-77
2021/06/02 11:33:17;;;;;;;4.78;3.08;;;;;;;23.25;53.20;101415.31;6224720;28;20050;-76
2021/06/02 11:36:19;;;;;;;6.70;3.42;;;;;;;23.19;52.73;101416.75;6227364;28;20112;-76
2021/06/02 11:39:20;;;;;;;10.95;3.42;;;;;;;23.64;53.58;101413.31;6202037;28;20051;-79
2021/06/02 11:42:29;;;;;;;11.02;3.72;;;;;;;23.90;51.33;101415.28;6218353;28;20054;-78
2021/06/02 11:45:30;;;;;;;10.77;3.03;;;;;;;24.11;50.05;101413.13;6227100;28;20539;-79
2021/06/02 11:48:35;;;;;;;7.97;2.83;;;;;;;24.37;50.42;101413.22;6229730;28;20289;-79
2021/06/02 11:51:37;;;;;;;9.35;3.28;;;;;;;24.88;50.66;101408.88;6223441;28;20056;-79
2021/06/02 11:54:48;;;;;;;5.97;3.47;;;;;;;24.98;48.03;101414.13;6225763;28;20652;-78
2021/06/02 11:57:51;;;;;;;7.47;2.92;;;;;;;25.19;48.80;101403.00;6225587;28;20099;-77
2021/06/02 12:00:52;;;;;;;20.20;3.17;;;;;;;25.21;46.20;101399.19;6226202;28;20140;-77
2021/06/02 12:03:57;;;;;;;6.00;3.20;;;;;;;25.19;47.61;101403.00;6225054;28;20404;-77
2021/06/02 12:06:59;;;;;;;12.68;3.60;;;;;;;25.30;47.62;101405.44;6225326;28;20045;-76
2021/06/02 12:10:00;;;;;;;18.67;3.47;;;;;;;25.52;47.62;101402.13;6225273;28;20054;-77
2021/06/02 12:13:03;;;;;;;15.52;3.45;;;;;;;25.72;45.62;101402.69;6218040;28;20061;-77
2021/06/02 12:16:07;;;;;;;7.93;3.03;;;;;;;25.84;45.45;101394.31;6200233;28;20053;-76
2021/06/02 12:19:08;;;;;;;11.90;3.58;;;;;;;26.08;45.76;101390.84;6217674;28;20556;-76
2021/06/02 12:22:12;;;;;;;8.80;2.97;;;;;;;26.20;44.16;101394.88;6217311;28;20049;-77
2021/06/02 12:25:16;;;;;;;12.85;3.38;;;;;;;26.37;45.01;101407.34;6214845;28;20054;-77
2021/06/02 12:28:17;;;;;;;11.05;3.30;;;;;;;26.40;44.96;101398.09;6208047;28;20461;-76
2021/06/02 12:31:29;;;;;;;15.60;3.25;;;;;;;26.16;45.92;101397.09;6215196;28;20057;-77
2021/06/02 12:34:32;;;;;;;12.10;3.78;;;;;;;25.80;44.96;101381.22;6222034;28;20061;-78
2021/06/02 12:37:35;;;;;;;8.45;3.15;;;;;;;25.92;45.12;101386.25;6225470;28;20068;-79
2021/06/02 12:40:38;;;;;;;6.45;3.50;;;;;;;26.06;46.30;101393.69;6224184;28;20046;-77
2021/06/02 12:43:41;;;;;;;5.30;3.20;;;;;;;26.54;44.58;101392.88;6224317;28;20049;-77
2021/06/02 12:46:55;;;;;;;4.38;3.17;;;;;;;26.71;43.88;101391.00;6223898;28;20136;-78
2021/06/02 12:49:58;;;;;;;8.65;3.60;;;;;;;26.78;42.54;101385.75;6223999;28;20049;-78
2021/06/02 12:53:00;;;;;;;8.20;3.20;;;;;;;26.55;43.21;101382.94;6213582;28;20046;-77
2021/06/02 12:56:01;;;;;;;8.55;3.17;;;;;;;26.79;43.90;101393.66;6223270;28;20053;-77
2021/06/02 12:59:02;;;;;;;7.82;3.00;;;;;;;27.11;43.13;101386.50;6205132;28;20058;-77
2021/06/02 13:02:05;;;;;;;245.80;15.43;;;;;;;27.23;43.94;101384.28;6202042;28;20092;-78
2021/06/02 13:05:07;;;;;;;64.63;5.30;;;;;;;27.38;43.12;101370.88;6200715;28;20494;-75
2021/06/02 13:08:10;;;;;;;11.50;3.40;;;;;;;27.59;42.83;101375.66;6200099;28;20053;-77
2021/06/02 13:11:12;;;;;;;14.82;3.90;;;;;;;27.70;43.60;101375.25;6200825;28;20058;-77
2021/06/02 13:14:14;;;;;;;8.45;3.47;;;;;;;27.68;40.68;101378.13;6219756;28;20054;-78
2021/06/02 13:17:15;;;;;;;13.18;3.83;;;;;;;27.61;40.92;101370.91;6227461;28;20049;-77
2021/06/02 13:20:31;;;;;;;8.40;2.92;;;;;;;27.60;41.95;101375.47;6229001;28;20112;-80
2021/06/02 13:23:34;;;;;;;10.00;3.70;;;;;;;27.08;42.93;101375.22;6228751;28;20100;-79
2021/06/02 13:26:35;;;;;;;10.45;3.85;;;;;;;27.44;41.26;101367.50;6229051;28;20049;-81
2021/06/02 13:29:36;;;;;;;6.10;2.70;;;;;;;27.68;42.06;101369.19;6229028;28;20082;-78
2021/06/02 13:32:37;;;;;;;4.15;3.15;;;;;;;27.87;40.81;101370.59;6217773;28;20127;-79
2021/06/02 13:35:39;;;;;;;21.90;3.88;;;;;;;27.51;43.56;101358.47;6215253;28;20058;-80
2021/06/02 13:38:42;;;;;;;12.82;3.03;;;;;;;27.82;42.56;101363.03;6202321;28;20129;-78
2021/06/02 13:41:44;;;;;;;14.18;3.65;;;;;;;28.17;41.80;101358.88;6199665;28;20097;-78
2021/06/02 13:44:56;;;;;;;6.72;3.03;;;;;;;28.43;40.12;101361.19;6198054;28;20073;-78
2021/06/02 13:47:57;;;;;;;10.18;3.00;;;;;;;28.54;39.48;101362.63;6199230;28;20502;-77
2021/06/02 13:51:30;;;;;;;22.17;4.22;;;;;;;28.51;39.10;101358.41;6198616;28;20053;-77
2021/06/02 13:54:33;;;;;;;10.48;3.60;;;;;;;28.41;40.56;101349.72;6198552;28;20058;-78
2021/06/02 13:57:38;;;;;;;10.05;3.10;;;;;;;28.60;38.48;101353.75;6198869;28;20053;-79
2021/06/02 14:00:41;;;;;;;6.75;3.15;;;;;;;28.85;35.96;101357.06;6198498;28;20100;-76
2021/06/02 14:03:42;;;;;;;9.00;3.17;;;;;;;28.67;36.75;101354.72;6199542;28;20050;-80
2021/06/02 14:06:43;;;;;;;7.25;3.15;;;;;;;28.62;37.87;101356.31;6200188;28;20858;-80
2021/06/02 14:09:47;;;;;;;9.27;3.08;;;;;;;28.28;37.61;101353.03;6200483;28;20514;-81
2021/06/02 14:12:48;;;;;;;8.05;2.90;;;;;;;27.87;41.36;101359.81;6200485;28;20057;-79
2021/06/02 14:15:49;;;;;;;10.80;3.08;;;;;;;27.79;41.75;101352.59;6197846;28;20052;-78
2021/06/02 14:18:51;;;;;;;11.23;3.40;;;;;;;28.17;40.97;101355.34;6198230;28;20051;-77
2021/06/02 14:21:52;;;;;;;5.63;2.85;;;;;;;27.84;41.23;101349.34;6198206;28;20050;-79
2021/06/02 14:24:54;;;;;;;9.93;3.53;;;;;;;27.30;42.21;101353.72;6197411;28;20046;-77
2021/06/02 14:27:55;;;;;;;7.53;3.38;;;;;;;27.36;42.30;101354.88;6197839;28;20146;-78
2021/06/02 14:30:56;;;;;;;11.65;3.17;;;;;;;27.96;41.52;101351.44;6198611;28;20085;-77